createdAt,value
2019-02-23T00:00:37.314Z,0.00
2019-02-23T00:01:37.313Z,0.00
2019-02-23T00:02:37.308Z,0.00
2019-02-23T00:03:37.318Z,0.00
2019-02-23T00:04:37.279Z,0.00
2019-02-23T00:05:37.280Z,0.00
2019-02-23T00:06:37.265Z,0.00
2019-02-23T00:07:37.256Z,0.00
2019-02-23T00:08:37.279Z,0.00
2019-02-23T00:09:37.288Z,0.00
2019-02-23T00:10:37.229Z,0.00
2019-02-23T00:11:37.220Z,0.00
2019-02-23T00:12:37.210Z,0.00
2019-02-23T00:13:37.236Z,0.00
2019-02-23T00:14:37.200Z,0.00
2019-02-23T00:15:37.189Z,0.00
2019-02-23T00:16:37.179Z,0.00
2019-02-23T00:17:37.172Z,0.00
2019-02-23T00:18:37.193Z,0.00
2019-02-23T00:19:37.151Z,0.00
2019-02-23T00:20:37.145Z,0.00
2019-02-23T00:21:37.138Z,0.00
2019-02-23T00:22:37.127Z,0.00
2019-02-23T00:23:37.151Z,0.00
2019-02-23T00:24:37.143Z,0.00
2019-02-23T00:25:37.104Z,0.00
2019-02-23T00:26:37.095Z,0.00
2019-02-23T00:27:37.083Z,0.00
2019-02-23T00:28:37.110Z,0.00
2019-02-23T00:29:37.068Z,0.00
2019-02-23T00:30:37.092Z,0.00
2019-02-23T00:31:37.051Z,0.00
2019-02-23T00:32:37.052Z,0.00
2019-02-23T00:33:37.062Z,0.00
2019-02-23T00:34:37.022Z,0.00
2019-02-23T00:35:37.015Z,0.00
2019-02-23T00:36:37.006Z,0.00
2019-02-23T00:37:37.004Z,0.00
2019-02-23T00:38:37.019Z,0.00
2019-02-23T00:39:36.984Z,0.00
2019-02-23T00:40:36.978Z,0.00
2019-02-23T00:41:36.966Z,0.00
2019-02-23T00:42:36.961Z,0.00
2019-02-23T00:43:36.974Z,0.00
2019-02-23T00:44:36.941Z,0.00
2019-02-23T00:45:36.931Z,0.00
2019-02-23T00:46:36.931Z,0.00
2019-02-23T00:47:36.914Z,0.00
2019-02-23T00:48:36.951Z,0.00
2019-02-23T00:49:36.899Z,0.00
2019-02-23T00:50:36.891Z,0.00
2019-02-23T00:51:36.883Z,0.00
2019-02-23T00:52:36.901Z,0.00
2019-02-23T00:53:36.861Z,0.00
2019-02-23T00:54:36.882Z,0.00
2019-02-23T00:55:36.846Z,0.00
2019-02-23T00:56:36.833Z,0.00
2019-02-23T00:57:36.835Z,0.00
2019-02-23T00:58:36.817Z,0.00
2019-02-23T00:59:36.841Z,0.00
2019-02-23T01:00:36.802Z,0.00
2019-02-23T01:01:36.795Z,0.00
2019-02-23T01:02:36.784Z,0.00
2019-02-23T01:03:36.774Z,0.00
2019-02-23T01:04:36.765Z,0.00
2019-02-23T01:05:36.790Z,0.00
2019-02-23T01:06:36.748Z,0.00
2019-02-23T01:07:36.741Z,0.00
2019-02-23T01:08:36.734Z,0.00
2019-02-23T01:09:36.755Z,0.00
2019-02-23T01:10:36.717Z,0.00
2019-02-23T01:11:36.899Z,0.00
2019-02-23T01:12:36.787Z,0.00
2019-02-23T01:13:37.082Z,0.00
2019-02-23T01:14:36.710Z,0.00
2019-02-23T01:15:36.671Z,0.00
2019-02-23T01:16:36.971Z,0.00
2019-02-23T01:17:36.652Z,0.00
2019-02-23T01:18:36.650Z,0.00
2019-02-23T01:19:47.037Z,0.00
2019-02-23T01:20:36.627Z,0.00
2019-02-23T01:21:36.625Z,0.00
2019-02-23T01:22:36.612Z,0.00
2019-02-23T01:23:36.603Z,0.00
2019-02-23T01:24:36.620Z,0.00
2019-02-23T01:25:36.583Z,0.00
2019-02-23T01:26:36.582Z,0.00
2019-02-23T01:27:36.570Z,0.00
2019-02-23T01:28:36.561Z,0.00
2019-02-23T01:29:36.579Z,0.00
2019-02-23T01:30:36.542Z,0.00
2019-02-23T01:31:36.631Z,0.00
2019-02-23T01:32:36.525Z,0.00
2019-02-23T01:33:36.515Z,0.00
2019-02-23T01:34:36.540Z,0.00
2019-02-23T01:35:36.505Z,0.00
2019-02-23T01:36:36.491Z,0.00
2019-02-23T01:37:36.484Z,0.00
2019-02-23T01:38:36.477Z,0.00
2019-02-23T01:39:36.501Z,0.00
2019-02-23T01:40:36.455Z,0.00
2019-02-23T01:41:36.447Z,0.00
2019-02-23T01:42:36.441Z,0.00
2019-02-23T01:43:36.436Z,0.00
2019-02-23T01:44:36.464Z,0.00
2019-02-23T01:45:42.389Z,0.00
2019-02-23T01:46:36.406Z,0.00
2019-02-23T01:47:36.393Z,0.00
2019-02-23T01:48:36.386Z,0.00
2019-02-23T01:49:36.411Z,0.00
2019-02-23T01:50:36.373Z,0.00
2019-02-23T01:51:36.363Z,0.00
2019-02-23T01:52:36.355Z,0.00
2019-02-23T01:53:36.345Z,0.00
2019-02-23T01:54:36.365Z,0.00
2019-02-23T01:55:36.327Z,0.00
2019-02-23T01:56:36.330Z,0.00
2019-02-23T01:57:36.318Z,0.00
2019-02-23T01:58:36.308Z,0.00
2019-02-23T01:59:36.325Z,0.00
2019-02-23T02:00:36.290Z,0.00
2019-02-23T02:01:36.281Z,0.00
2019-02-23T02:02:36.275Z,0.00
2019-02-23T02:03:36.261Z,0.00
2019-02-23T02:04:36.283Z,0.00
2019-02-23T02:05:36.249Z,0.00
2019-02-23T02:06:36.236Z,0.00
2019-02-23T02:07:36.230Z,0.00
2019-02-23T02:08:36.221Z,0.00
2019-02-23T02:09:36.252Z,0.00
2019-02-23T02:10:36.212Z,0.00
2019-02-23T02:11:36.204Z,0.00
2019-02-23T02:12:36.188Z,0.00
2019-02-23T02:13:36.211Z,0.00
2019-02-23T02:14:36.173Z,0.00
2019-02-23T02:15:36.194Z,0.00
2019-02-23T02:16:36.161Z,0.00
2019-02-23T02:17:36.149Z,0.00
2019-02-23T02:18:36.144Z,0.00
2019-02-23T02:19:36.132Z,0.00
2019-02-23T02:20:36.151Z,0.00
2019-02-23T02:21:36.151Z,0.00
2019-02-23T02:22:36.108Z,0.00
2019-02-23T02:23:36.100Z,0.00
2019-02-23T02:24:36.092Z,0.00
2019-02-23T02:25:36.111Z,0.00
2019-02-23T02:26:36.077Z,0.00
2019-02-23T02:27:36.068Z,0.00
2019-02-23T02:28:36.064Z,0.00
2019-02-23T02:29:36.050Z,0.00
2019-02-23T02:30:36.082Z,0.00
2019-02-23T02:31:36.036Z,0.00
2019-02-23T02:32:36.028Z,0.00
2019-02-23T02:33:36.020Z,0.00
2019-02-23T02:34:36.011Z,0.00
2019-02-23T02:35:36.036Z,0.00
2019-02-23T02:36:36.026Z,0.00
2019-02-23T02:37:35.989Z,0.00
2019-02-23T02:38:35.979Z,0.00
2019-02-23T02:39:35.972Z,0.00
2019-02-23T02:40:35.990Z,0.00
2019-02-23T02:41:35.956Z,0.00
2019-02-23T02:42:35.952Z,0.00
2019-02-23T02:43:35.940Z,0.00
2019-02-23T02:44:35.932Z,0.00
2019-02-23T02:45:35.954Z,0.00
2019-02-23T02:46:35.915Z,0.00
2019-02-23T02:47:35.906Z,0.00
2019-02-23T02:48:35.898Z,0.00
2019-02-23T02:49:35.891Z,0.00
2019-02-23T02:50:35.909Z,0.00
2019-02-23T02:51:35.870Z,0.00
2019-02-23T02:52:35.861Z,0.00
2019-02-23T02:53:35.856Z,0.00
2019-02-23T02:54:35.846Z,0.00
2019-02-23T02:55:35.866Z,0.00
2019-02-23T02:56:35.836Z,0.00
2019-02-23T02:57:35.825Z,0.00
2019-02-23T02:58:35.830Z,0.00
2019-02-23T02:59:35.813Z,0.00
2019-02-23T03:00:35.826Z,0.00
2019-02-23T03:01:35.817Z,0.00
2019-02-23T03:02:35.781Z,0.00
2019-02-23T03:03:35.779Z,0.00
2019-02-23T03:04:35.766Z,0.00
2019-02-23T03:05:35.789Z,0.00
2019-02-23T03:06:35.745Z,0.00
2019-02-23T03:07:35.737Z,0.00
2019-02-23T03:08:35.733Z,0.00
2019-02-23T03:09:35.724Z,0.00
2019-02-23T03:10:35.742Z,0.00
2019-02-23T03:11:37.238Z,0.00
2019-02-23T03:12:35.698Z,0.00
2019-02-23T03:13:35.692Z,0.00
2019-02-23T03:14:35.685Z,0.00
2019-02-23T03:15:35.700Z,0.00
2019-02-23T03:16:35.692Z,0.00
2019-02-23T03:17:35.657Z,0.00
2019-02-23T03:18:35.649Z,0.00
2019-02-23T03:19:35.639Z,0.00
2019-02-23T03:20:36.864Z,0.00
2019-02-23T03:21:35.619Z,0.00
2019-02-23T03:22:35.639Z,0.00
2019-02-23T03:23:35.606Z,0.00
2019-02-23T03:24:35.596Z,0.00
2019-02-23T03:25:35.616Z,0.00
2019-02-23T03:26:35.581Z,0.00
2019-02-23T03:27:35.571Z,0.00
2019-02-23T03:28:35.593Z,0.00
2019-02-23T03:29:35.551Z,0.00
2019-02-23T03:30:35.571Z,0.00
2019-02-23T03:31:35.599Z,0.00
2019-02-23T03:32:35.544Z,0.00
2019-02-23T03:33:35.567Z,0.00
2019-02-23T03:34:35.526Z,0.00
2019-02-23T03:35:35.552Z,0.00
2019-02-23T03:36:35.625Z,0.00
2019-02-23T03:37:35.498Z,0.00
2019-02-23T03:38:35.498Z,0.00
2019-02-23T03:39:35.482Z,0.00
2019-02-23T03:40:35.473Z,0.00
2019-02-23T03:41:35.509Z,0.00
2019-02-23T03:42:35.460Z,0.00
2019-02-23T03:43:35.449Z,0.00
2019-02-23T03:44:35.440Z,0.00
2019-02-23T03:45:35.431Z,0.00
2019-02-23T03:46:35.458Z,0.00
2019-02-23T03:47:35.452Z,0.00
2019-02-23T03:48:35.401Z,0.00
2019-02-23T03:49:35.399Z,0.00
2019-02-23T03:50:35.386Z,0.00
2019-02-23T03:51:35.416Z,0.00
2019-02-23T03:52:35.369Z,0.00
2019-02-23T03:53:35.365Z,0.00
2019-02-23T03:54:35.354Z,0.00
2019-02-23T03:55:35.343Z,0.00
2019-02-23T03:56:35.369Z,0.00
2019-02-23T03:57:35.325Z,0.00
2019-02-23T03:58:35.322Z,0.00
2019-02-23T03:59:35.306Z,0.00
2019-02-23T04:00:35.301Z,0.00
2019-02-23T04:01:35.326Z,0.00
2019-02-23T04:02:35.281Z,0.00
2019-02-23T04:03:35.268Z,0.00
2019-02-23T04:04:35.266Z,0.00
2019-02-23T04:05:35.261Z,0.00
2019-02-23T04:06:35.281Z,0.00
2019-02-23T04:07:35.273Z,0.00
2019-02-23T04:08:35.224Z,0.00
2019-02-23T04:09:35.220Z,0.00
2019-02-23T04:10:35.211Z,0.00
2019-02-23T04:11:35.244Z,0.00
2019-02-23T04:12:35.199Z,0.00
2019-02-23T04:13:35.181Z,0.00
2019-02-23T04:14:35.172Z,0.00
2019-02-23T04:15:35.164Z,0.00
2019-02-23T04:16:35.195Z,0.00
2019-02-23T04:17:35.144Z,0.00
2019-02-23T04:18:35.137Z,0.00
2019-02-23T04:19:35.129Z,0.00
2019-02-23T04:20:35.128Z,0.00
2019-02-23T04:21:35.152Z,0.00
2019-02-23T04:22:35.108Z,0.00
2019-02-23T04:23:35.096Z,0.00
2019-02-23T04:24:35.089Z,0.00
2019-02-23T04:25:35.079Z,0.00
2019-02-23T04:26:35.115Z,0.00
2019-02-23T04:27:35.070Z,0.00
2019-02-23T04:28:35.060Z,0.00
2019-02-23T04:29:35.059Z,0.00
2019-02-23T04:30:35.035Z,0.00
2019-02-23T04:31:35.059Z,0.00
2019-02-23T04:32:35.018Z,0.00
2019-02-23T04:33:35.009Z,0.00
2019-02-23T04:34:35.016Z,0.00
2019-02-23T04:35:34.999Z,0.00
2019-02-23T04:36:35.019Z,0.00
2019-02-23T04:37:35.007Z,0.00
2019-02-23T04:38:35.048Z,0.00
2019-02-23T04:39:34.963Z,0.00
2019-02-23T04:40:34.964Z,0.00
2019-02-23T04:41:34.992Z,0.00
2019-02-23T04:42:34.936Z,0.00
2019-02-23T04:43:34.928Z,0.00
2019-02-23T04:44:34.918Z,0.00
2019-02-23T04:45:34.912Z,0.00
2019-02-23T04:46:34.903Z,0.00
2019-02-23T04:47:34.926Z,0.00
2019-02-23T04:48:34.882Z,0.00
2019-02-23T04:49:34.877Z,0.00
2019-02-23T04:50:34.865Z,0.00
2019-02-23T04:51:34.860Z,0.00
2019-02-23T04:52:34.893Z,0.00
2019-02-23T04:53:34.844Z,0.00
2019-02-23T04:54:34.840Z,0.00
2019-02-23T04:55:34.832Z,0.00
2019-02-23T04:56:34.817Z,0.00
2019-02-23T04:57:34.848Z,0.00
2019-02-23T04:58:34.845Z,0.00
2019-02-23T04:59:34.796Z,0.00
2019-02-23T05:00:34.783Z,0.00
2019-02-23T05:01:34.776Z,0.00
2019-02-23T05:02:34.805Z,0.00
2019-02-23T05:03:34.766Z,0.00
2019-02-23T05:04:34.748Z,0.00
2019-02-23T05:05:34.739Z,0.00
2019-02-23T05:06:34.739Z,0.00
2019-02-23T05:07:34.759Z,0.00
2019-02-23T05:08:34.718Z,0.00
2019-02-23T05:09:34.711Z,0.00
2019-02-23T05:10:34.699Z,0.00
2019-02-23T05:11:34.691Z,0.00
2019-02-23T05:12:34.713Z,0.00
2019-02-23T05:13:34.679Z,0.00
2019-02-23T05:14:34.668Z,0.00
2019-02-23T05:15:34.657Z,0.00
2019-02-23T05:16:34.646Z,0.00
2019-02-23T05:17:34.678Z,0.00
2019-02-23T05:18:34.631Z,0.00
2019-02-23T05:19:34.626Z,0.00
2019-02-23T05:20:34.621Z,0.00
2019-02-23T05:21:34.610Z,0.00
2019-02-23T05:22:34.639Z,0.00
2019-02-23T05:23:34.622Z,0.00
2019-02-23T05:24:34.579Z,0.00
2019-02-23T05:25:34.575Z,0.00
2019-02-23T05:26:34.598Z,0.00
2019-02-23T05:27:34.589Z,0.00
2019-02-23T05:28:34.545Z,0.00
2019-02-23T05:29:34.535Z,0.00
2019-02-23T05:30:34.531Z,0.00
2019-02-23T05:31:34.550Z,0.00
2019-02-23T05:32:34.545Z,0.00
2019-02-23T05:33:34.506Z,0.00
2019-02-23T05:34:34.492Z,0.00
2019-02-23T05:35:35.159Z,4.00
2019-02-23T05:36:34.473Z,4.00
2019-02-23T05:37:34.505Z,0.00
2019-02-23T05:38:34.493Z,4.00
2019-02-23T05:39:34.447Z,4.00
2019-02-23T05:40:34.443Z,4.00
2019-02-23T05:41:34.435Z,8.00
2019-02-23T05:42:34.465Z,4.00
2019-02-23T05:43:34.423Z,4.00
2019-02-23T05:44:34.404Z,8.00
2019-02-23T05:45:34.398Z,8.00
2019-02-23T05:46:34.388Z,12.00
2019-02-23T05:47:34.417Z,16.00
2019-02-23T05:48:34.361Z,16.00
2019-02-23T05:49:36.789Z,20.00
2019-02-23T05:50:34.362Z,24.00
2019-02-23T05:51:38.658Z,28.00
2019-02-23T05:52:34.372Z,36.00
2019-02-23T05:53:34.324Z,40.00
2019-02-23T05:54:34.318Z,48.00
2019-02-23T05:55:34.307Z,56.00
2019-02-23T05:56:34.300Z,72.00
2019-02-23T05:57:34.325Z,84.00
2019-02-23T05:58:34.280Z,100.00
2019-02-23T05:59:34.272Z,116.00
2019-02-23T06:00:34.268Z,136.00
2019-02-23T06:01:34.251Z,152.00
2019-02-23T06:02:34.283Z,168.00
2019-02-23T06:03:34.235Z,184.00
2019-02-23T06:04:34.227Z,204.00
2019-02-23T06:05:34.218Z,232.00
2019-02-23T06:06:34.206Z,260.00
2019-02-23T06:07:34.198Z,296.00
2019-02-23T06:08:34.241Z,328.00
2019-02-23T06:09:34.190Z,368.00
2019-02-23T06:10:34.171Z,412.00
2019-02-23T06:11:34.165Z,456.00
2019-02-23T06:12:34.157Z,508.00
2019-02-23T06:13:34.192Z,556.00
2019-02-23T06:14:34.149Z,612.00
2019-02-23T06:15:34.130Z,668.00
2019-02-23T06:16:34.117Z,732.00
2019-02-23T06:17:34.109Z,800.00
2019-02-23T06:18:34.142Z,876.00
2019-02-23T06:19:34.091Z,952.00
2019-02-23T06:20:34.081Z,1028.00
2019-02-23T06:21:34.074Z,1112.00
2019-02-23T06:22:34.064Z,1200.00
2019-02-23T06:23:34.094Z,1296.00
2019-02-23T06:24:34.086Z,1388.00
2019-02-23T06:25:34.256Z,1468.00
2019-02-23T06:26:34.025Z,1544.00
2019-02-23T06:27:34.022Z,1628.00
2019-02-23T06:28:34.047Z,1724.00
2019-02-23T06:29:34.001Z,1832.00
2019-02-23T06:30:34.028Z,1944.00
2019-02-23T06:31:33.979Z,2052.00
2019-02-23T06:32:33.973Z,2152.00
2019-02-23T06:33:34.000Z,2268.00
2019-02-23T06:34:33.993Z,2364.00
2019-02-23T06:35:33.949Z,2452.00
2019-02-23T06:36:33.934Z,2524.00
2019-02-23T06:37:33.927Z,2592.00
2019-02-23T06:38:33.958Z,2644.00
2019-02-23T06:39:33.931Z,2696.00
2019-02-23T06:40:33.912Z,2744.00
2019-02-23T06:41:33.905Z,2804.00
2019-02-23T06:42:33.892Z,2868.00
2019-02-23T06:43:33.916Z,2956.00
2019-02-23T06:44:33.954Z,3052.00
2019-02-23T06:45:33.859Z,3160.00
2019-02-23T06:46:33.857Z,3252.00
2019-02-23T06:47:33.847Z,3340.00
2019-02-23T06:48:33.875Z,3404.00
2019-02-23T06:49:33.826Z,3468.00
2019-02-23T06:50:33.822Z,3540.00
2019-02-23T06:51:33.811Z,3640.00
2019-02-23T06:52:33.825Z,3756.00
2019-02-23T06:53:33.832Z,3876.00
2019-02-23T06:54:33.824Z,4000.00
2019-02-23T06:55:33.787Z,4136.00
2019-02-23T06:56:33.775Z,4304.00
2019-02-23T06:57:33.763Z,4496.00
2019-02-23T06:58:33.802Z,4580.00
2019-02-23T06:59:33.750Z,4704.00
2019-02-23T07:00:33.780Z,4796.00
2019-02-23T07:01:33.741Z,5068.00
2019-02-23T07:02:33.726Z,5332.00
2019-02-23T07:03:33.750Z,5496.00
2019-02-23T07:04:34.303Z,5512.00
2019-02-23T07:05:33.701Z,5400.00
2019-02-23T07:06:33.733Z,5424.00
2019-02-23T07:07:33.685Z,5576.00
2019-02-23T07:08:33.733Z,5704.00
2019-02-23T07:09:33.673Z,5896.00
2019-02-23T07:10:33.664Z,5928.00
2019-02-23T07:11:33.656Z,6052.00
2019-02-23T07:12:33.654Z,6816.00
2019-02-23T07:13:33.685Z,6960.00
2019-02-23T07:14:33.677Z,7208.00
2019-02-23T07:15:34.212Z,6756.00
2019-02-23T07:16:33.627Z,6524.00
2019-02-23T07:17:33.621Z,6228.00
2019-02-23T07:18:33.649Z,6180.00
2019-02-23T07:19:33.609Z,6256.00
2019-02-23T07:20:43.431Z,6736.00
2019-02-23T07:21:33.598Z,6888.00
2019-02-23T07:22:33.875Z,6756.00
2019-02-23T07:23:33.584Z,6764.00
2019-02-23T07:24:33.615Z,7140.00
2019-02-23T07:25:33.573Z,7380.00
2019-02-23T07:26:33.573Z,7676.00
2019-02-23T07:27:36.067Z,7828.00
2019-02-23T07:28:33.593Z,7920.00
2019-02-23T07:29:33.588Z,8092.00
2019-02-23T07:30:33.549Z,8244.00
2019-02-23T07:31:33.541Z,8404.00
2019-02-23T07:32:33.535Z,8320.00
2019-02-23T07:33:33.580Z,8516.00
2019-02-23T07:34:33.566Z,8708.00
2019-02-23T07:35:33.554Z,8788.00
2019-02-23T07:36:33.514Z,8852.00
2019-02-23T07:37:33.511Z,8868.00
2019-02-23T07:38:35.501Z,8784.00
2019-02-23T07:39:33.542Z,8776.00
2019-02-23T07:40:33.497Z,8896.00
2019-02-23T07:41:33.494Z,8960.00
2019-02-23T07:42:33.492Z,8992.00
2019-02-23T07:43:33.485Z,9064.00
2019-02-23T07:44:33.523Z,9068.00
2019-02-23T07:45:33.514Z,9080.00
2019-02-23T07:46:33.474Z,9052.00
2019-02-23T07:47:33.472Z,9084.00
2019-02-23T07:48:33.468Z,9044.00
2019-02-23T07:49:33.504Z,9128.00
2019-02-23T07:50:33.460Z,9284.00
2019-02-23T07:51:33.461Z,9452.00
2019-02-23T07:52:33.454Z,9632.00
2019-02-23T07:53:33.453Z,9820.00
2019-02-23T07:54:33.493Z,10088.00
2019-02-23T07:55:33.523Z,10124.00
2019-02-23T07:56:35.139Z,10064.00
2019-02-23T07:57:33.442Z,10156.00
2019-02-23T07:58:33.436Z,10520.00
2019-02-23T07:59:33.478Z,10632.00
2019-02-23T08:00:33.476Z,10572.00
2019-02-23T08:01:33.431Z,10444.00
2019-02-23T08:02:33.430Z,10496.00
2019-02-23T08:03:33.431Z,10620.00
2019-02-23T08:04:33.457Z,10884.00
2019-02-23T08:05:33.427Z,10936.00
2019-02-23T08:06:33.458Z,10556.00
2019-02-23T08:07:33.431Z,10096.00
2019-02-23T08:08:33.427Z,9992.00
2019-02-23T08:09:33.454Z,9952.00
2019-02-23T08:10:33.411Z,10224.00
2019-02-23T08:11:33.410Z,10336.00
2019-02-23T08:12:33.407Z,10316.00
2019-02-23T08:13:33.416Z,10472.00
2019-02-23T08:14:33.449Z,10620.00
2019-02-23T08:15:33.447Z,10656.00
2019-02-23T08:16:33.403Z,10640.00
2019-02-23T08:17:33.409Z,10632.00
2019-02-23T08:18:33.407Z,10696.00
2019-02-23T08:19:33.441Z,10776.00
2019-02-23T08:20:33.405Z,10932.00
2019-02-23T08:21:34.073Z,11012.00
2019-02-23T08:22:37.366Z,11360.00
2019-02-23T08:23:33.403Z,11936.00
2019-02-23T08:24:33.442Z,12580.00
2019-02-23T08:25:33.410Z,12672.00
2019-02-23T08:26:33.408Z,12964.00
2019-02-23T08:27:33.449Z,13024.00
2019-02-23T08:28:33.412Z,12944.00
2019-02-23T08:29:33.459Z,13224.00
2019-02-23T08:30:33.420Z,13168.00
2019-02-23T08:31:33.420Z,13304.00
2019-02-23T08:32:33.411Z,13472.00
2019-02-23T08:33:33.417Z,13788.00
2019-02-23T08:34:33.462Z,14124.00
2019-02-23T08:35:33.594Z,14532.00
2019-02-23T08:36:33.422Z,15024.00
2019-02-23T08:37:33.429Z,14936.00
2019-02-23T08:38:33.434Z,14720.00
2019-02-23T08:39:33.482Z,14764.00
2019-02-23T08:40:33.476Z,14732.00
2019-02-23T08:41:33.439Z,14708.00
2019-02-23T08:42:33.473Z,15092.00
2019-02-23T08:43:33.445Z,15176.00
2019-02-23T08:44:33.446Z,15256.00
2019-02-23T08:45:33.490Z,14856.00
2019-02-23T08:46:33.493Z,14812.00
2019-02-23T08:47:33.457Z,14644.00
2019-02-23T08:48:33.621Z,14616.00
2019-02-23T08:49:33.465Z,14896.00
2019-02-23T08:50:33.500Z,14868.00
2019-02-23T08:51:33.470Z,14804.00
2019-02-23T08:52:33.475Z,14656.00
2019-02-23T08:53:33.517Z,14268.00
2019-02-23T08:54:33.487Z,14648.00
2019-02-23T08:55:33.525Z,15096.00
2019-02-23T08:56:33.493Z,15124.00
2019-02-23T08:57:33.495Z,15300.00
2019-02-23T08:58:33.501Z,15664.00
2019-02-23T08:59:33.507Z,15816.00
2019-02-23T09:00:33.630Z,16208.00
2019-02-23T09:01:33.516Z,16604.00
2019-02-23T09:02:33.523Z,16792.00
2019-02-23T09:03:33.529Z,16472.00
2019-02-23T09:04:33.531Z,15932.00
2019-02-23T09:05:33.576Z,15332.00
2019-02-23T09:06:33.543Z,15092.00
2019-02-23T09:07:33.547Z,15000.00
2019-02-23T09:08:33.556Z,15360.00
2019-02-23T09:09:33.561Z,15424.00
2019-02-23T09:10:33.603Z,15248.00
2019-02-23T09:11:33.572Z,15348.00
2019-02-23T09:12:33.582Z,15308.00
2019-02-23T09:13:33.585Z,15188.00
2019-02-23T09:14:33.592Z,15244.00
2019-02-23T09:15:33.630Z,15108.00
2019-02-23T09:16:33.637Z,15104.00
2019-02-23T09:17:33.606Z,15016.00
2019-02-23T09:18:33.615Z,14888.00
2019-02-23T09:19:33.619Z,14512.00
2019-02-23T09:20:33.662Z,14616.00
2019-02-23T09:21:33.629Z,14636.00
2019-02-23T09:22:33.641Z,14736.00
2019-02-23T09:23:33.635Z,14968.00
2019-02-23T09:24:33.644Z,15004.00
2019-02-23T09:25:33.683Z,14984.00
2019-02-23T09:26:33.650Z,15216.00
2019-02-23T09:27:33.655Z,15292.00
2019-02-23T09:28:33.658Z,15164.00
2019-02-23T09:29:33.663Z,15212.00
2019-02-23T09:30:33.706Z,15188.00
2019-02-23T09:31:33.670Z,15320.00
2019-02-23T09:32:33.675Z,15280.00
2019-02-23T09:33:33.683Z,15348.00
2019-02-23T09:34:33.687Z,15416.00
2019-02-23T09:35:33.727Z,15532.00
2019-02-23T09:36:33.694Z,15712.00
2019-02-23T09:37:33.697Z,15964.00
2019-02-23T09:38:33.707Z,15888.00
2019-02-23T09:39:33.712Z,16088.00
2019-02-23T09:40:33.749Z,16276.00
2019-02-23T09:41:33.721Z,16444.00
2019-02-23T09:42:33.724Z,16356.00
2019-02-23T09:43:33.725Z,16504.00
2019-02-23T09:44:33.735Z,16720.00
2019-02-23T09:45:33.788Z,16828.00
2019-02-23T09:46:33.748Z,16548.00
2019-02-23T09:47:33.753Z,16440.00
2019-02-23T09:48:33.762Z,16656.00
2019-02-23T09:49:33.773Z,17044.00
2019-02-23T09:50:33.815Z,17216.00
2019-02-23T09:51:33.781Z,17792.00
2019-02-23T09:52:33.789Z,18080.00
2019-02-23T09:53:33.800Z,18272.00
2019-02-23T09:54:33.798Z,18368.00
2019-02-23T09:55:33.846Z,18528.00
2019-02-23T09:56:33.813Z,18720.00
2019-02-23T09:57:33.819Z,18848.00
2019-02-23T09:58:33.842Z,19040.00
2019-02-23T09:59:33.831Z,19264.00
2019-02-23T10:00:33.839Z,19584.00
2019-02-23T10:01:33.881Z,19616.00
2019-02-23T10:02:33.851Z,20576.00
2019-02-23T10:03:33.855Z,21568.00
2019-02-23T10:04:33.870Z,21600.00
2019-02-23T10:05:34.034Z,22432.00
2019-02-23T10:06:33.917Z,22656.00
2019-02-23T10:07:33.921Z,22432.00
2019-02-23T10:08:33.891Z,22560.00
2019-02-23T10:09:33.970Z,22816.00
2019-02-23T10:10:33.940Z,23072.00
2019-02-23T10:11:33.946Z,22592.00
2019-02-23T10:12:33.914Z,23584.00
2019-02-23T10:13:33.920Z,25600.00
2019-02-23T10:14:33.929Z,26432.00
2019-02-23T10:15:33.934Z,26464.00
2019-02-23T10:16:33.981Z,26784.00
2019-02-23T10:17:33.946Z,27872.00
2019-02-23T10:18:33.957Z,27840.00
2019-02-23T10:19:33.966Z,28352.00
2019-02-23T10:20:34.058Z,29280.00
2019-02-23T10:21:34.008Z,30176.00
2019-02-23T10:22:34.017Z,29920.00
2019-02-23T10:23:34.044Z,30816.00
2019-02-23T10:24:33.995Z,31744.00
2019-02-23T10:25:34.005Z,30496.00
2019-02-23T10:26:34.059Z,29568.00
2019-02-23T10:27:34.015Z,28576.00
2019-02-23T10:28:34.065Z,28576.00
2019-02-23T10:29:34.035Z,29440.00
2019-02-23T10:30:34.044Z,29088.00
2019-02-23T10:31:34.090Z,29952.00
2019-02-23T10:32:34.055Z,30368.00
2019-02-23T10:33:34.064Z,30784.00
2019-02-23T10:34:34.068Z,31424.00
2019-02-23T10:35:34.075Z,33504.00
2019-02-23T10:36:34.124Z,33984.00
2019-02-23T10:37:34.177Z,33792.00
2019-02-23T10:38:34.102Z,37184.00
2019-02-23T10:39:34.103Z,38144.00
2019-02-23T10:40:34.113Z,38016.00
2019-02-23T10:41:34.154Z,43904.00
2019-02-23T10:42:34.128Z,45440.00
2019-02-23T10:43:34.134Z,43232.00
2019-02-23T10:44:34.143Z,43648.00
2019-02-23T10:45:34.153Z,43904.00
2019-02-23T10:46:34.190Z,45952.00
2019-02-23T10:47:34.162Z,48480.00
2019-02-23T10:48:34.174Z,47680.00
2019-02-23T10:49:34.185Z,49568.00
2019-02-23T10:50:34.189Z,52928.00
2019-02-23T10:51:34.230Z,54144.00
2019-02-23T10:52:34.207Z,52768.00
2019-02-23T10:53:34.213Z,60288.00
2019-02-23T10:54:34.223Z,62112.00
2019-02-23T10:55:34.238Z,60672.00
2019-02-23T10:56:34.269Z,67776.00
2019-02-23T10:57:34.241Z,66816.00
2019-02-23T10:58:34.257Z,58496.00
2019-02-23T10:59:34.699Z,56672.00
2019-02-23T11:00:34.265Z,52448.00
2019-02-23T11:01:34.317Z,48512.00
2019-02-23T11:02:34.322Z,43392.00
2019-02-23T11:03:34.291Z,39520.00
2019-02-23T11:04:34.309Z,37824.00
2019-02-23T11:05:34.313Z,35712.00
2019-02-23T11:06:34.360Z,34400.00
2019-02-23T11:07:34.340Z,33184.00
2019-02-23T11:08:34.387Z,32384.00
2019-02-23T11:09:34.353Z,33280.00
2019-02-23T11:10:34.366Z,33568.00
2019-02-23T11:11:34.411Z,34944.00
2019-02-23T11:12:34.380Z,35296.00
2019-02-23T11:13:34.393Z,34496.00
2019-02-23T11:14:34.403Z,33280.00
2019-02-23T11:15:34.414Z,32064.00
2019-02-23T11:16:34.457Z,31520.00
2019-02-23T11:17:34.468Z,31744.00
2019-02-23T11:18:34.437Z,31232.00
2019-02-23T11:19:34.451Z,30464.00
2019-02-23T11:20:34.453Z,31168.00
2019-02-23T11:21:34.467Z,30880.00
2019-02-23T11:22:34.504Z,33024.00
2019-02-23T11:23:43.958Z,34880.00
2019-02-23T11:24:34.487Z,35360.00
2019-02-23T11:25:34.494Z,34496.00
2019-02-23T11:26:34.499Z,33440.00
2019-02-23T11:27:35.607Z,33344.00
2019-02-23T11:28:34.514Z,34368.00
2019-02-23T11:29:34.510Z,34784.00
2019-02-23T11:30:34.528Z,34496.00
2019-02-23T11:31:34.540Z,37024.00
2019-02-23T11:32:34.577Z,36128.00
2019-02-23T11:33:34.548Z,35552.00
2019-02-23T11:34:34.560Z,35552.00
2019-02-23T11:35:34.565Z,34208.00
2019-02-23T11:36:34.575Z,38976.00
2019-02-23T11:37:34.612Z,42368.00
2019-02-23T11:38:34.621Z,37120.00
2019-02-23T11:39:34.592Z,45760.00
2019-02-23T11:40:34.630Z,46912.00
2019-02-23T11:41:34.606Z,44352.00
2019-02-23T11:42:34.649Z,44128.00
2019-02-23T11:43:34.622Z,45408.00
2019-02-23T11:44:34.624Z,51872.00
2019-02-23T11:45:34.631Z,60000.00
2019-02-23T11:46:34.643Z,64224.00
2019-02-23T11:47:34.683Z,67328.00
2019-02-23T11:48:34.653Z,69952.00
2019-02-23T11:49:34.660Z,71168.00
2019-02-23T11:50:34.671Z,75680.00
2019-02-23T11:51:34.674Z,67072.00
2019-02-23T11:52:34.723Z,68704.00
2019-02-23T11:53:34.687Z,77568.00
2019-02-23T11:54:34.710Z,71296.00
2019-02-23T11:55:34.702Z,68608.00
2019-02-23T11:56:34.711Z,68928.00
2019-02-23T11:57:34.760Z,68704.00
2019-02-23T11:58:34.731Z,62528.00
2019-02-23T11:59:34.734Z,63104.00
2019-02-23T12:00:34.741Z,63104.00
2019-02-23T12:01:34.748Z,65216.00
2019-02-23T12:02:34.791Z,71264.00
2019-02-23T12:03:34.763Z,70752.00
2019-02-23T12:04:34.803Z,70688.00
2019-02-23T12:05:34.786Z,50272.00
2019-02-23T12:06:34.787Z,73984.00
2019-02-23T12:07:34.834Z,56512.00
2019-02-23T12:08:34.800Z,60032.00
2019-02-23T12:09:34.808Z,54080.00
2019-02-23T12:10:34.823Z,47680.00
2019-02-23T12:11:34.826Z,50720.00
2019-02-23T12:12:34.872Z,62784.00
2019-02-23T12:13:34.839Z,59392.00
2019-02-23T12:14:34.846Z,62272.00
2019-02-23T12:15:34.855Z,54816.00
2019-02-23T12:16:34.858Z,58176.00
2019-02-23T12:17:34.903Z,56288.00
2019-02-23T12:18:34.916Z,64256.00
2019-02-23T12:19:34.883Z,66368.00
2019-02-23T12:20:34.896Z,39712.00
2019-02-23T12:21:34.898Z,54432.00
2019-02-23T12:22:34.943Z,67104.00
2019-02-23T12:23:34.914Z,66208.00
2019-02-23T12:24:34.927Z,60096.00
2019-02-23T12:25:34.935Z,62944.00
2019-02-23T12:26:34.942Z,65536.00
2019-02-23T12:27:34.980Z,59520.00
2019-02-23T12:28:34.992Z,63104.00
2019-02-23T12:29:34.963Z,57344.00
2019-02-23T12:30:34.968Z,59584.00